Belleville, West Virginia
Current Conditions -  °F | °C
As of 12:53 AM on Friday 28 Nov 2014 (Local Time) from KPKB Reporting Station
Overcast Overcast  
Wind Chill: 20°   Ceiling: 5500
Heat Index: 29°   Visibility: 10mi
Dew Point: 19°   Wind: 9mph
Humidity: 67%   Direction: 290°WNW
Pressure: 30.34"   Gusts: NA
Location:  39.12°N, 81.74°W
Report Text: KPKB 280553Z AUTO 29008KT 10SM OVC055 M02/M07 A3034 RMK AO2 SLP281 60000 T10171072 11006 21017 51004
Loading
Personal Weather Stations






























Interactive Weather Map New forecast layout! Learn more

10-Day Weather Forecast

Advertisements
Track Severe Weather on mobile